Time;durP1;ratioP1;P1;durP2;ratioP2;P2;SDS_P1;SDS_P2;PMS_P1;PMS_P2;Temp;Humidity;BMP_temperature;BMP_pressure;BME280_temperature;BME280_humidity;BME280_pressure;Samples;Min_cycle;Max_cycle;Signal;HPM_P1;HPM_P2
2022/04/23 00:01:50;;;;;;;16.13;9.20;;;11.50;99.90;;;;;;4995673;28;20223;-79
2022/04/23 00:04:18;;;;;;;13.00;9.33;;;11.50;99.90;;;;;;4999248;28;20208;-80
2022/04/23 00:06:45;;;;;;;13.23;9.27;;;11.50;99.90;;;;;;4996507;28;20220;-79
2022/04/23 00:09:15;;;;;;;13.23;9.17;;;11.50;99.90;;;;;;4996934;28;20205;-79
2022/04/23 00:11:43;;;;;;;15.63;10.00;;;11.40;99.90;;;;;;5000626;28;20260;-78
2022/04/23 00:14:10;;;;;;;15.03;9.97;;;11.40;99.90;;;;;;5003933;28;20240;-79
2022/04/23 00:16:37;;;;;;;14.00;10.33;;;11.40;99.90;;;;;;4995625;28;20214;-79
2022/04/23 00:19:04;;;;;;;13.63;10.30;;;11.40;99.90;;;;;;5000524;28;20200;-77
2022/04/23 00:21:31;;;;;;;17.37;10.60;;;11.40;99.90;;;;;;4998866;28;20226;-78
2022/04/23 00:23:58;;;;;;;13.17;10.10;;;11.30;99.90;;;;;;5002547;28;20605;-78
2022/04/23 00:26:25;;;;;;;19.87;11.23;;;11.30;99.90;;;;;;4998478;28;20253;-78
2022/04/23 00:28:52;;;;;;;15.90;11.53;;;11.30;99.90;;;;;;4996228;28;20300;-80
2022/04/23 00:31:18;;;;;;;17.03;11.63;;;11.30;99.90;;;;;;4992670;28;20205;-78
2022/04/23 00:33:46;;;;;;;16.87;12.57;;;11.30;99.90;;;;;;4999486;28;20231;-79
2022/04/23 00:36:13;;;;;;;16.10;11.70;;;11.30;99.90;;;;;;4998104;28;20257;-78
2022/04/23 00:38:42;;;;;;;16.37;12.30;;;11.30;99.90;;;;;;5006391;28;20225;-78
2022/04/23 00:41:43;;;;;;;17.97;12.40;;;11.30;99.90;;;;;;5005463;28;20236;-79
2022/04/23 00:44:00;;;;;;;17.83;12.13;;;11.20;99.90;;;;;;4995836;28;20262;-79
2022/04/23 00:46:27;;;;;;;20.07;13.13;;;11.30;99.90;;;;;;4999034;28;20313;-79
2022/04/23 00:48:53;;;;;;;20.30;12.93;;;11.20;99.90;;;;;;4997276;28;20596;-79
2022/04/23 00:51:20;;;;;;;21.03;13.90;;;11.20;99.90;;;;;;5000968;28;20242;-78
2022/04/23 00:53:50;;;;;;;19.37;13.80;;;11.20;99.90;;;;;;4998692;28;20232;-78
2022/04/23 00:56:17;;;;;;;19.77;13.60;;;11.20;99.90;;;;;;4998447;28;20204;-79
2022/04/23 00:58:45;;;;;;;23.77;14.93;;;11.20;99.90;;;;;;4996233;28;20256;-78
2022/04/23 01:01:11;;;;;;;23.53;14.40;;;11.20;99.90;;;;;;4997139;28;20215;-78
2022/04/23 01:03:39;;;;;;;22.63;14.57;;;11.20;99.90;;;;;;5001073;28;20231;-79
2022/04/23 01:06:06;;;;;;;22.03;14.57;;;11.20;99.90;;;;;;4997523;28;20288;-79
2022/04/23 01:08:33;;;;;;;22.70;15.23;;;11.20;99.90;;;;;;4997498;28;20220;-79
2022/04/23 01:11:00;;;;;;;22.37;15.27;;;11.20;99.90;;;;;;5002266;28;20245;-78
2022/04/23 01:13:27;;;;;;;22.03;15.60;;;11.30;99.90;;;;;;5000239;28;20290;-79
2022/04/23 01:15:58;;;;;;;22.67;16.83;;;11.30;99.90;;;;;;4999546;28;20637;-79
2022/04/23 01:18:26;;;;;;;26.13;16.50;;;11.30;99.90;;;;;;5001336;28;20732;-79
2022/04/23 01:20:54;;;;;;;24.73;16.53;;;11.40;99.90;;;;;;4994077;28;20203;-80
2022/04/23 01:23:20;;;;;;;24.20;16.33;;;11.40;99.90;;;;;;4999250;28;20275;-79
2022/04/23 01:25:49;;;;;;;26.47;16.57;;;11.40;99.90;;;;;;4995993;28;20212;-80
2022/04/23 01:28:19;;;;;;;24.40;16.03;;;11.40;99.90;;;;;;4999442;28;20262;-78
2022/04/23 01:30:54;;;;;;;24.57;17.73;;;11.50;99.90;;;;;;5000670;28;20205;-80
2022/04/23 01:33:21;;;;;;;26.87;17.27;;;11.50;99.90;;;;;;5002591;28;20234;-78
2022/04/23 01:35:47;;;;;;;25.87;17.77;;;11.50;99.90;;;;;;4994872;28;20208;-79
2022/04/23 01:38:14;;;;;;;25.33;17.30;;;11.50;99.90;;;;;;4997528;28;20684;-79
2022/04/23 01:40:42;;;;;;;29.90;18.60;;;11.50;99.90;;;;;;5007659;28;20672;-78
2022/04/23 01:43:10;;;;;;;27.83;18.27;;;11.50;99.90;;;;;;5020305;28;20201;-79
2022/04/23 01:45:38;;;;;;;28.33;18.07;;;11.60;99.90;;;;;;5028937;28;20204;-79
2022/04/23 01:48:06;;;;;;;29.57;19.30;;;11.50;99.90;;;;;;5027291;28;20208;-79
2022/04/23 01:50:36;;;;;;;29.77;19.20;;;11.50;99.90;;;;;;5028596;28;20204;-78
2022/04/23 01:53:03;;;;;;;28.83;19.20;;;11.50;99.90;;;;;;5023958;28;20277;-79
2022/04/23 01:55:32;;;;;;;34.77;20.03;;;11.50;99.90;;;;;;5006915;28;20724;-78
2022/04/23 01:57:59;;;;;;;27.53;18.70;;;11.40;99.90;;;;;;5028798;28;20200;-80
2022/04/23 02:00:26;;;;;;;29.47;19.10;;;11.40;99.90;;;;;;5007989;28;20197;-79
2022/04/23 02:02:54;;;;;;;28.73;20.30;;;11.50;99.90;;;;;;5027430;28;20278;-80
2022/04/23 02:05:22;;;;;;;32.73;19.20;;;11.50;99.90;;;;;;5017740;28;20209;-79
2022/04/23 02:07:49;;;;;;;31.13;20.27;;;11.50;99.90;;;;;;5031953;28;20216;-79
2022/04/23 02:10:16;;;;;;;31.17;19.97;;;11.50;99.90;;;;;;5023653;28;20673;-80
2022/04/23 02:12:45;;;;;;;32.57;20.70;;;11.40;99.90;;;;;;5023712;28;20648;-80
2022/04/23 02:15:14;;;;;;;29.70;19.43;;;11.50;99.90;;;;;;5022273;28;20234;-79
2022/04/23 02:17:43;;;;;;;29.93;20.43;;;11.60;99.90;;;;;;5019127;28;20213;-79
2022/04/23 02:20:15;;;;;;;29.90;19.67;;;11.60;99.90;;;;;;5023912;28;20223;-80
2022/04/23 02:22:44;;;;;;;31.97;20.97;;;11.70;99.90;;;;;;5022466;28;20316;-80
2022/04/23 02:25:11;;;;;;;33.27;20.50;;;11.80;99.90;;;;;;5021236;28;20640;-79
2022/04/23 02:27:46;;;;;;;28.20;20.07;;;11.60;99.90;;;;;;5018798;28;20231;-80
2022/04/23 02:30:15;;;;;;;32.67;21.60;;;11.60;99.90;;;;;;5021061;28;20267;-79
2022/04/23 02:32:42;;;;;;;33.47;21.33;;;11.70;99.90;;;;;;5021462;28;20288;-79
2022/04/23 02:35:11;;;;;;;33.47;22.27;;;11.70;99.90;;;;;;5003578;28;20227;-81
2022/04/23 02:37:38;;;;;;;31.87;20.80;;;11.60;99.90;;;;;;5008311;28;20302;-78
2022/04/23 02:40:07;;;;;;;35.27;21.90;;;11.50;99.90;;;;;;5009534;28;20215;-79
2022/04/23 02:42:39;;;;;;;33.27;21.00;;;11.40;99.90;;;;;;5022250;28;20267;-80
2022/04/23 02:45:11;;;;;;;32.37;21.83;;;11.40;99.90;;;;;;5025530;28;20215;-78
2022/04/23 02:47:57;;;;;;;33.97;21.07;;;11.30;99.90;;;;;;5021312;28;20211;-80
2022/04/23 02:50:29;;;;;;;30.97;21.53;;;11.30;99.90;;;;;;5009464;28;20213;-79
2022/04/23 02:52:57;;;;;;;34.67;23.13;;;11.10;99.90;;;;;;5003567;28;20256;-79
2022/04/23 02:55:26;;;;;;;33.90;22.67;;;11.00;99.90;;;;;;5019019;28;20207;-80
2022/04/23 02:57:54;;;;;;;33.73;22.27;;;11.00;99.90;;;;;;5022597;28;20682;-80
2022/04/23 03:00:21;;;;;;;36.63;23.37;;;10.90;99.90;;;;;;5021329;28;20206;-79
2022/04/23 03:02:48;;;;;;;37.27;22.57;;;10.90;99.90;;;;;;5021170;28;20192;-79
2022/04/23 03:05:15;;;;;;;39.63;23.77;;;10.80;99.90;;;;;;5017205;28;20234;-80
2022/04/23 03:07:45;;;;;;;35.20;23.13;;;10.80;99.90;;;;;;4998653;28;20217;-79
2022/04/23 03:10:15;;;;;;;36.70;22.63;;;10.80;99.90;;;;;;5019382;28;20739;-80
2022/04/23 03:12:42;;;;;;;36.03;23.40;;;10.70;99.90;;;;;;5010533;28;20225;-79
2022/04/23 03:15:13;;;;;;;36.53;23.57;;;10.70;99.90;;;;;;5013143;28;20249;-79
2022/04/23 03:17:41;;;;;;;38.40;23.77;;;10.70;99.90;;;;;;5027133;28;20252;-78
2022/04/23 03:20:09;;;;;;;34.60;21.93;;;10.60;99.90;;;;;;5020554;28;20234;-80
2022/04/23 03:22:38;;;;;;;37.63;24.00;;;10.60;99.90;;;;;;5016808;28;20711;-78
2022/04/23 03:25:10;;;;;;;39.33;23.53;;;10.50;99.90;;;;;;5022185;28;20199;-78
2022/04/23 03:27:37;;;;;;;40.57;24.47;;;10.50;99.90;;;;;;5019936;28;20244;-79
2022/04/23 03:30:05;;;;;;;36.27;22.37;;;10.40;99.90;;;;;;5019181;28;20260;-80
2022/04/23 03:32:32;;;;;;;40.73;25.07;;;10.40;99.90;;;;;;5018697;28;20242;-79
2022/04/23 03:34:59;;;;;;;42.97;25.53;;;10.30;99.90;;;;;;5020703;28;20202;-79
2022/04/23 03:37:26;;;;;;;38.93;23.40;;;10.30;99.90;;;;;;5022125;28;20251;-79
2022/04/23 03:39:53;;;;;;;38.50;22.97;;;10.20;99.90;;;;;;5019974;28;20202;-79
2022/04/23 03:42:20;;;;;;;36.70;23.10;;;10.20;99.90;;;;;;5018657;28;20709;-79
2022/04/23 03:44:47;;;;;;;36.77;23.10;;;10.20;99.90;;;;;;5017788;28;20209;-79
2022/04/23 03:47:15;;;;;;;39.40;24.17;;;10.20;99.90;;;;;;5022614;28;20202;-79
2022/04/23 03:49:42;;;;;;;41.00;24.47;;;10.20;99.90;;;;;;5006716;28;20214;-80
2022/04/23 03:52:12;;;;;;;38.90;23.63;;;10.10;99.90;;;;;;5017095;28;20255;-80
2022/04/23 03:54:39;;;;;;;37.00;23.33;;;10.10;99.90;;;;;;5020274;28;20236;-81
2022/04/23 03:57:08;;;;;;;37.80;24.50;;;10.10;99.90;;;;;;5018866;28;20228;-79
2022/04/23 03:59:37;;;;;;;41.90;26.13;;;10.00;99.90;;;;;;5016785;28;20256;-80
2022/04/23 04:02:06;;;;;;;40.70;24.57;;;10.00;99.90;;;;;;5018498;28;20229;-80
2022/04/23 04:04:34;;;;;;;43.50;25.80;;;10.00;99.90;;;;;;5018185;28;20204;-80
2022/04/23 04:07:02;;;;;;;38.97;23.77;;;10.00;99.90;;;;;;5021856;28;20221;-78
2022/04/23 04:09:29;;;;;;;42.70;25.00;;;9.90;99.90;;;;;;5013671;28;20308;-80
2022/04/23 04:12:03;;;;;;;37.10;23.37;;;9.90;99.90;;;;;;5016411;28;20295;-79
2022/04/23 04:14:34;;;;;;;35.37;22.33;;;9.80;99.90;;;;;;5019451;28;20238;-80
2022/04/23 04:17:10;;;;;;;36.57;22.80;;;9.80;99.90;;;;;;5001595;28;20214;-79
2022/04/23 04:19:38;;;;;;;39.27;24.17;;;9.80;99.90;;;;;;5013389;28;20662;-80
2022/04/23 04:22:06;;;;;;;38.90;24.37;;;9.80;99.90;;;;;;5013776;28;20221;-78
2022/04/23 04:24:33;;;;;;;40.80;24.23;;;9.80;99.90;;;;;;5019584;28;20284;-80
2022/04/23 04:27:02;;;;;;;37.73;23.30;;;9.70;99.90;;;;;;4998847;28;20225;-79
2022/04/23 04:29:29;;;;;;;39.57;23.57;;;9.70;99.90;;;;;;5018931;28;20258;-79
2022/04/23 04:31:56;;;;;;;35.27;22.67;;;9.70;99.90;;;;;;5017520;28;20239;-79
2022/04/23 04:34:30;;;;;;;40.63;23.17;;;9.60;99.90;;;;;;5021496;28;20229;-80
2022/04/23 04:37:04;;;;;;;35.80;22.57;;;9.70;99.90;;;;;;5018204;28;20220;-80
2022/04/23 04:39:32;;;;;;;35.97;22.93;;;9.60;99.90;;;;;;5002838;28;20246;-79
2022/04/23 04:41:59;;;;;;;35.30;22.00;;;9.50;99.90;;;;;;4999518;28;20246;-80
2022/04/23 04:44:25;;;;;;;37.37;22.87;;;9.50;99.90;;;;;;5001351;28;20239;-79
2022/04/23 04:46:53;;;;;;;35.83;22.67;;;9.50;99.90;;;;;;5007133;28;20226;-80
2022/04/23 04:49:22;;;;;;;33.77;21.00;;;9.50;99.90;;;;;;4997442;28;20722;-81
2022/04/23 04:51:50;;;;;;;35.10;21.20;;;9.60;99.90;;;;;;5000795;28;20224;-80
2022/04/23 04:54:19;;;;;;;34.23;22.37;;;9.60;99.90;;;;;;4998702;28;20590;-77
2022/04/23 04:56:45;;;;;;;35.67;21.40;;;9.50;99.90;;;;;;4998267;28;20309;-78
2022/04/23 04:59:13;;;;;;;35.37;21.40;;;9.60;99.90;;;;;;4999012;28;20237;-79
2022/04/23 05:01:40;;;;;;;33.20;20.30;;;9.50;99.90;;;;;;4998703;28;20255;-79
2022/04/23 05:04:07;;;;;;;32.40;20.53;;;9.60;99.90;;;;;;4997472;28;20722;-80
2022/04/23 05:06:34;;;;;;;32.00;20.33;;;9.60;99.90;;;;;;4998418;28;20257;-81
2022/04/23 05:09:02;;;;;;;32.30;20.80;;;9.70;99.90;;;;;;4994486;28;20265;-80
2022/04/23 05:11:29;;;;;;;31.07;20.03;;;9.70;99.90;;;;;;5002876;28;20214;-79
2022/04/23 05:13:55;;;;;;;30.43;19.97;;;9.70;99.90;;;;;;5007107;28;20263;-77
2022/04/23 05:16:22;;;;;;;28.90;19.03;;;9.70;99.90;;;;;;5003809;28;20380;-81
2022/04/23 05:18:50;;;;;;;30.23;18.73;;;9.80;99.90;;;;;;5001553;28;20206;-79
2022/04/23 05:21:17;;;;;;;28.17;18.90;;;9.80;99.90;;;;;;5005570;28;20625;-78
2022/04/23 05:23:46;;;;;;;28.40;19.07;;;9.90;99.90;;;;;;5005392;28;20278;-79
2022/04/23 05:26:14;;;;;;;30.43;19.87;;;9.90;99.90;;;;;;5008966;28;20201;-79
2022/04/23 05:28:41;;;;;;;28.03;18.20;;;9.90;99.90;;;;;;5003257;28;20225;-79
2022/04/23 05:31:09;;;;;;;27.37;17.70;;;10.00;99.90;;;;;;5008684;28;20753;-79
2022/04/23 05:33:36;;;;;;;27.07;18.23;;;10.00;99.90;;;;;;5000673;28;20306;-79
2022/04/23 05:36:06;;;;;;;27.50;18.27;;;10.00;99.90;;;;;;5000530;28;20672;-80
2022/04/23 05:38:37;;;;;;;27.13;18.43;;;10.20;99.90;;;;;;5003593;28;20211;-80
2022/04/23 05:41:04;;;;;;;27.50;18.90;;;10.20;99.90;;;;;;5009148;28;20241;-79
2022/04/23 05:43:31;;;;;;;29.53;18.63;;;10.30;99.90;;;;;;5025129;28;20201;-81
2022/04/23 05:46:00;;;;;;;26.60;18.20;;;10.30;99.90;;;;;;5007907;28;20264;-80
2022/04/23 05:48:27;;;;;;;25.90;18.67;;;10.40;99.90;;;;;;5010281;28;20215;-79
2022/04/23 05:50:54;;;;;;;26.50;17.10;;;10.40;99.90;;;;;;5022774;28;20659;-80
2022/04/23 05:53:21;;;;;;;26.77;16.70;;;10.50;99.90;;;;;;5018746;28;20687;-79
2022/04/23 05:55:49;;;;;;;28.30;17.33;;;10.50;99.90;;;;;;5023096;28;20214;-81
2022/04/23 05:58:16;;;;;;;24.43;16.93;;;10.60;99.90;;;;;;5019992;28;20249;-81
2022/04/23 06:00:46;;;;;;;24.63;17.33;;;10.70;99.90;;;;;;5023265;28;20210;-81
2022/04/23 06:03:13;;;;;;;22.70;15.90;;;10.80;99.90;;;;;;5009630;28;20215;-80
2022/04/23 06:05:40;;;;;;;24.83;17.23;;;10.80;99.90;;;;;;5024047;28;20214;-79
2022/04/23 06:08:07;;;;;;;23.97;16.83;;;10.80;99.90;;;;;;5022942;28;20227;-80
2022/04/23 06:10:34;;;;;;;22.07;15.67;;;11.00;99.90;;;;;;5018622;28;20211;-81
2022/04/23 06:13:02;;;;;;;19.67;14.43;;;11.30;99.90;;;;;;5004289;28;20608;-81
2022/04/23 06:15:29;;;;;;;18.87;13.93;;;12.00;99.90;;;;;;5004455;28;20206;-81
2022/04/23 06:17:56;;;;;;;19.33;13.90;;;12.80;99.90;;;;;;5004749;28;20557;-79
2022/04/23 06:20:24;;;;;;;19.87;13.53;;;13.50;99.90;;;;;;5002858;28;20198;-81
2022/04/23 06:22:53;;;;;;;17.67;13.20;;;14.00;99.90;;;;;;5023822;28;20256;-80
2022/04/23 06:25:20;;;;;;;21.07;13.50;;;14.30;99.90;;;;;;5018386;28;20206;-81
2022/04/23 06:27:47;;;;;;;17.13;13.17;;;14.10;99.90;;;;;;5019874;28;20264;-82
2022/04/23 06:30:15;;;;;;;16.63;13.40;;;13.70;99.90;;;;;;5020644;28;20234;-80
2022/04/23 06:32:42;;;;;;;19.33;13.37;;;13.30;99.90;;;;;;5006808;28;20262;-80
2022/04/23 06:35:09;;;;;;;17.43;13.13;;;12.90;99.90;;;;;;5022621;28;20234;-81
2022/04/23 06:37:44;;;;;;;19.10;13.67;;;12.80;99.90;;;;;;5022129;28;20214;-80
2022/04/23 06:40:11;;;;;;;16.57;13.10;;;12.70;99.90;;;;;;5000362;28;20205;-80
2022/04/23 06:42:39;;;;;;;19.83;12.47;;;12.80;99.90;;;;;;5000952;28;20234;-80
2022/04/23 06:45:07;;;;;;;17.53;13.13;;;12.80;99.90;;;;;;5000766;28;20573;-80
2022/04/23 06:47:37;;;;;;;18.03;13.03;;;12.90;99.90;;;;;;4997909;28;20652;-81
2022/04/23 06:50:06;;;;;;;18.57;12.33;;;13.20;99.90;;;;;;4998925;28;20297;-81
2022/04/23 06:52:33;;;;;;;16.47;11.83;;;13.70;99.90;;;;;;4996926;28;20234;-80
2022/04/23 06:55:00;;;;;;;15.30;11.10;;;14.30;99.90;;;;;;4998723;28;20303;-81
2022/04/23 06:57:27;;;;;;;14.83;10.93;;;14.90;99.90;;;;;;4999376;28;20277;-81
2022/04/23 06:59:54;;;;;;;21.03;11.10;;;15.30;99.90;;;;;;5001601;28;20252;-80
2022/04/23 07:02:21;;;;;;;14.52;11.07;;;15.80;99.90;;;;;;4998674;28;20246;-81
2022/04/23 07:04:48;;;;;;;15.98;11.70;;;16.00;99.90;;;;;;4998663;28;20269;-81
2022/04/23 07:07:15;;;;;;;13.77;10.60;;;16.30;99.90;;;;;;4997551;28;20220;-79
2022/04/23 07:09:42;;;;;;;15.23;11.70;;;16.40;99.90;;;;;;4998312;28;20289;-79
2022/04/23 07:12:11;;;;;;;13.83;11.27;;;16.00;99.90;;;;;;4998622;28;20262;-80
2022/04/23 07:14:39;;;;;;;12.93;10.73;;;15.50;99.90;;;;;;4995921;28;20223;-79
2022/04/23 07:17:07;;;;;;;15.43;11.70;;;15.00;99.90;;;;;;4999259;28;20198;-80
2022/04/23 07:19:41;;;;;;;15.67;11.80;;;14.80;99.90;;;;;;4998419;28;20245;-80
2022/04/23 07:22:09;;;;;;;15.10;12.13;;;14.60;99.90;;;;;;5000391;28;20227;-79
2022/04/23 07:24:38;;;;;;;16.13;12.23;;;14.60;99.90;;;;;;4999493;28;20317;-80
2022/04/23 07:27:06;;;;;;;15.83;11.73;;;14.50;99.90;;;;;;4994504;28;20690;-80
2022/04/23 07:29:33;;;;;;;13.07;11.00;;;14.70;99.90;;;;;;5003325;28;20214;-80
2022/04/23 07:32:00;;;;;;;14.15;11.05;;;15.30;99.90;;;;;;4999617;28;20210;-80
2022/04/23 07:37:31;;;;;;;15.60;10.57;;;16.50;99.90;;;;;;4995710;28;20226;-82
2022/04/23 07:40:05;;;;;;;15.25;11.65;;;16.70;99.90;;;;;;4998570;28;20202;-81
2022/04/23 07:42:32;;;;;;;13.23;10.93;;;17.00;99.90;;;;;;5003011;28;20236;-81
2022/04/23 07:44:59;;;;;;;18.50;12.00;;;17.00;99.90;;;;;;4998319;28;20589;-80
2022/04/23 07:47:27;;;;;;;15.48;11.65;;;16.80;99.90;;;;;;4999419;28;20206;-80
2022/04/23 07:49:55;;;;;;;16.42;12.35;;;16.50;99.90;;;;;;4998571;28;20674;-81
2022/04/23 07:52:22;;;;;;;14.80;11.88;;;16.70;99.90;;;;;;5007877;28;20253;-82
2022/04/23 07:54:49;;;;;;;15.50;12.00;;;16.80;99.90;;;;;;4999756;28;20301;-81
2022/04/23 07:57:21;;;;;;;16.60;11.50;;;17.00;99.90;;;;;;4998864;28;20719;-82
2022/04/23 07:59:50;;;;;;;19.17;12.93;;;17.30;99.90;;;;;;4998548;28;20203;-83
2022/04/23 08:02:16;;;;;;;14.85;11.23;;;17.40;99.90;;;;;;5002819;28;20300;-77
2022/04/23 08:04:45;;;;;;;23.17;12.95;;;17.20;99.90;;;;;;4998198;28;20210;-77
2022/04/23 08:07:13;;;;;;;18.17;13.38;;;17.10;99.90;;;;;;5002516;28;20215;-81
2022/04/23 08:09:41;;;;;;;17.15;12.57;;;17.30;99.90;;;;;;4997627;28;20310;-82
2022/04/23 08:12:10;;;;;;;16.80;12.65;;;17.40;99.90;;;;;;4998778;28;20565;-83
2022/04/23 08:14:38;;;;;;;17.63;12.85;;;17.60;99.90;;;;;;4994883;28;20227;-81
2022/04/23 08:17:05;;;;;;;16.27;11.57;;;17.80;99.90;;;;;;5002514;28;20214;-80
2022/04/23 08:19:32;;;;;;;19.08;13.30;;;18.00;99.90;;;;;;4998732;28;20199;-81
2022/04/23 08:22:00;;;;;;;17.65;13.02;;;17.80;99.90;;;;;;5003795;28;20206;-81
2022/04/23 08:24:28;;;;;;;19.35;12.98;;;17.80;99.90;;;;;;5003026;28;20288;-82
2022/04/23 08:26:55;;;;;;;17.95;12.80;;;17.60;99.90;;;;;;5001352;28;20285;-81
2022/04/23 08:32:07;;;;;;;19.95;13.18;;;17.20;99.90;;;;;;4998277;28;20549;-83
2022/04/23 08:34:35;;;;;;;18.40;13.07;;;17.10;99.90;;;;;;4991928;28;20222;-82
2022/04/23 08:37:02;;;;;;;17.55;13.27;;;17.00;99.90;;;;;;4993128;28;20620;-81
2022/04/23 08:39:29;;;;;;;16.63;13.27;;;17.00;99.90;;;;;;4997053;28;20264;-81
2022/04/23 08:41:55;;;;;;;20.98;13.82;;;17.40;99.90;;;;;;4999880;28;20693;-83
2022/04/23 08:44:23;;;;;;;20.50;13.18;;;17.50;99.90;;;;;;4995197;28;20261;-80
2022/04/23 08:46:54;;;;;;;20.23;14.25;;;17.30;99.90;;;;;;5000488;28;20230;-81
2022/04/23 08:49:29;;;;;;;20.75;13.38;;;17.40;99.90;;;;;;5002105;28;20202;-83
2022/04/23 08:52:11;;;;;;;18.10;14.00;;;17.50;99.90;;;;;;5008997;28;20744;-82
2022/04/23 08:54:38;;;;;;;22.00;13.93;;;17.70;99.90;;;;;;5009404;28;20230;-81
2022/04/23 08:57:05;;;;;;;21.67;14.27;;;17.80;99.90;;;;;;5012751;28;20202;-80
2022/04/23 08:59:34;;;;;;;19.92;13.90;;;18.00;99.90;;;;;;5020253;28;20207;-82
2022/04/23 09:02:02;;;;;;;19.27;14.10;;;18.00;99.90;;;;;;5014113;28;20222;-83
2022/04/23 09:04:29;;;;;;;22.55;15.45;;;17.90;99.90;;;;;;5017052;28;20210;-81
2022/04/23 09:06:59;;;;;;;21.90;14.27;;;17.80;99.90;;;;;;5003958;28;20222;-81
2022/04/23 09:09:25;;;;;;;23.20;15.05;;;17.80;99.90;;;;;;5001518;28;20220;-82
2022/04/23 09:11:58;;;;;;;21.20;15.00;;;17.80;99.90;;;;;;4998961;28;20210;-83
2022/04/23 09:14:30;;;;;;;21.15;15.57;;;17.90;99.90;;;;;;4997482;28;20230;-85
2022/04/23 09:25:35;;;;;;;22.10;14.43;;;17.60;99.90;;;;;;5001121;28;20778;-83
2022/04/23 09:28:15;;;;;;;23.13;15.65;;;17.60;99.90;;;;;;5002188;28;20752;-84
2022/04/23 09:30:43;;;;;;;23.02;15.25;;;17.70;99.90;;;;;;5007616;28;20202;-81
2022/04/23 09:33:10;;;;;;;21.88;15.30;;;17.70;99.90;;;;;;4998725;28;20210;-80
2022/04/23 09:35:56;;;;;;;23.00;15.30;;;17.70;99.90;;;;;;5006080;28;20231;-80
2022/04/23 09:38:24;;;;;;;20.55;14.55;;;17.70;99.90;;;;;;5001451;28;20747;-81
2022/04/23 09:40:55;;;;;;;22.67;15.05;;;17.60;99.90;;;;;;5005512;28;20292;-81
2022/04/23 09:43:26;;;;;;;25.80;16.55;;;17.60;99.90;;;;;;5023007;28;20210;-80
2022/04/23 09:46:01;;;;;;;23.52;16.27;;;17.70;99.90;;;;;;5021043;28;20206;-81
2022/04/23 09:48:38;;;;;;;22.55;15.27;;;17.70;99.90;;;;;;5021089;28;20669;-81
2022/04/23 09:51:19;;;;;;;21.98;16.35;;;17.90;99.90;;;;;;5020282;28;20198;-80
2022/04/23 09:53:49;;;;;;;23.45;15.90;;;17.70;99.90;;;;;;5020842;28;20293;-81
2022/04/23 09:56:18;;;;;;;23.30;16.10;;;17.70;99.90;;;;;;5023556;28;20268;-80
2022/04/23 09:58:45;;;;;;;24.85;16.60;;;17.80;99.90;;;;;;5019584;28;20309;-82
2022/04/23 10:01:13;;;;;;;27.73;17.77;;;17.90;99.90;;;;;;5016206;28;20213;-81
2022/04/23 10:03:44;;;;;;;25.27;15.90;;;18.10;99.90;;;;;;5015891;28;20276;-79
2022/04/23 10:06:14;;;;;;;23.02;16.27;;;18.10;99.90;;;;;;5024218;28;20213;-81
2022/04/23 10:08:47;;;;;;;23.13;16.90;;;18.30;99.90;;;;;;5016652;28;20206;-81
2022/04/23 10:11:26;;;;;;;27.20;17.13;;;18.20;99.90;;;;;;5019349;28;20584;-79
2022/04/23 10:14:06;;;;;;;24.73;16.48;;;18.00;99.90;;;;;;5005629;28;20236;-81
2022/04/23 10:16:35;;;;;;;26.00;16.23;;;18.10;99.90;;;;;;5021271;28;20210;-82
2022/04/23 10:19:02;;;;;;;24.35;16.70;;;18.10;99.90;;;;;;5018108;28;20264;-83
2022/04/23 10:21:41;;;;;;;24.05;16.88;;;18.20;99.90;;;;;;5018450;28;20242;-81
2022/04/23 10:24:14;;;;;;;24.83;16.08;;;18.20;99.90;;;;;;5020980;28;20233;-81
2022/04/23 10:26:47;;;;;;;25.85;16.95;;;18.30;99.90;;;;;;5018674;28;20491;-81
2022/04/23 10:29:19;;;;;;;25.15;16.85;;;18.40;99.90;;;;;;5008363;28;20222;-80
2022/04/23 10:32:12;;;;;;;25.02;17.42;;;18.30;99.90;;;;;;5008650;28;20210;-83
2022/04/23 10:34:42;;;;;;;25.38;18.50;;;18.30;99.90;;;;;;5019338;28;20217;-81
2022/04/23 10:37:27;;;;;;;28.30;17.25;;;18.40;99.90;;;;;;5016885;28;20230;-83
2022/04/23 10:39:54;;;;;;;28.58;17.65;;;18.60;99.90;;;;;;5023132;28;20217;-82
2022/04/23 10:42:22;;;;;;;27.35;17.65;;;18.60;99.90;;;;;;5023108;28;20226;-82
2022/04/23 10:44:51;;;;;;;27.17;17.55;;;18.80;99.90;;;;;;5009399;28;20206;-81
2022/04/23 10:47:39;;;;;;;29.05;18.48;;;18.80;99.90;;;;;;5019662;28;20211;-80
2022/04/23 10:50:13;;;;;;;31.13;17.58;;;18.80;99.90;;;;;;5017558;28;20209;-80
2022/04/23 10:52:41;;;;;;;24.52;16.52;;;18.70;99.90;;;;;;5021958;28;20216;-80
2022/04/23 10:55:10;;;;;;;25.30;17.83;;;18.70;99.90;;;;;;5001743;28;20273;-82
2022/04/23 10:57:39;;;;;;;25.05;16.20;;;18.80;99.90;;;;;;5022602;28;20198;-80
2022/04/23 11:00:15;;;;;;;25.80;16.42;;;19.00;99.90;;;;;;5019773;28;20209;-81
2022/04/23 11:02:54;;;;;;;25.98;17.15;;;19.00;99.90;;;;;;5020308;28;20211;-82
2022/04/23 11:14:51;;;;;;;22.70;15.60;;;18.80;99.90;;;;;;5020812;28;20213;-81
2022/04/23 11:17:31;;;;;;;24.00;16.15;;;18.80;99.90;;;;;;5013384;28;20210;-82
2022/04/23 11:19:59;;;;;;;24.33;17.30;;;18.90;99.90;;;;;;5007022;28;20201;-81
2022/04/23 11:22:27;;;;;;;28.30;17.60;;;19.00;99.90;;;;;;5020461;28;20774;-81
2022/04/23 11:24:54;;;;;;;26.20;16.08;;;19.20;99.90;;;;;;5020775;28;20242;-80
2022/04/23 11:27:36;;;;;;;27.35;16.95;;;19.20;99.90;;;;;;5019500;28;20927;-82
2022/04/23 11:30:05;;;;;;;24.92;15.95;;;19.10;99.90;;;;;;5020283;28;20198;-80
2022/04/23 11:32:34;;;;;;;24.95;16.05;;;19.00;99.90;;;;;;5017208;28;20677;-80
2022/04/23 11:35:05;;;;;;;22.77;15.75;;;19.00;99.90;;;;;;5020905;28;20673;-83
2022/04/23 11:37:34;;;;;;;28.27;17.48;;;19.10;99.90;;;;;;5022945;28;20695;-82
2022/04/23 11:40:12;;;;;;;25.48;16.65;;;19.20;99.90;;;;;;5016657;28;20222;-82
2022/04/23 11:42:41;;;;;;;27.95;17.27;;;19.10;99.60;;;;;;5019826;28;20580;-80
2022/04/23 11:45:09;;;;;;;29.40;16.55;;;19.10;99.60;;;;;;5017296;28;20206;-80
2022/04/23 11:47:36;;;;;;;26.95;17.63;;;19.00;99.90;;;;;;5019989;28;20605;-81
2022/04/23 11:50:10;;;;;;;25.02;14.98;;;18.80;99.90;;;;;;5020108;28;20518;-80
2022/04/23 11:52:42;;;;;;;29.50;17.52;;;18.90;99.60;;;;;;5021608;28;20218;-81
2022/04/23 11:55:20;;;;;;;24.33;15.13;;;18.90;99.00;;;;;;5018343;28;20682;-78
2022/04/23 11:57:54;;;;;;;24.05;15.05;;;18.80;99.00;;;;;;5018884;28;20217;-80
2022/04/23 12:00:24;;;;;;;25.85;15.48;;;18.70;98.90;;;;;;5016392;28;20205;-82
2022/04/23 12:02:51;;;;;;;22.27;13.88;;;18.80;99.20;;;;;;5014939;28;20608;-79
2022/04/23 12:05:28;;;;;;;35.33;17.13;;;19.00;98.90;;;;;;5020175;28;20330;-80
2022/04/23 12:07:58;;;;;;;24.83;14.73;;;19.00;99.10;;;;;;5016986;28;20226;-82
2022/04/23 12:10:32;;;;;;;20.38;14.48;;;19.00;99.10;;;;;;5022978;28;20587;-79
2022/04/23 12:13:08;;;;;;;24.95;15.82;;;19.10;98.50;;;;;;5020676;28;20198;-83
2022/04/23 12:15:43;;;;;;;22.58;15.10;;;19.30;98.20;;;;;;4995680;28;20225;-86
2022/04/23 12:18:19;;;;;;;22.58;14.45;;;19.50;98.60;;;;;;5020957;28;20614;-82
2022/04/23 12:20:46;;;;;;;19.33;12.90;;;19.50;98.50;;;;;;5008060;28;20209;-83
2022/04/23 12:23:13;;;;;;;21.40;13.35;;;19.70;97.70;;;;;;5003952;28;20218;-79
2022/04/23 12:25:40;;;;;;;24.48;14.90;;;19.90;97.20;;;;;;5024487;28;20999;-81
2022/04/23 12:42:30;;;;;;;21.08;12.77;;;19.50;96.90;;;;;;5027045;28;20237;-82
2022/04/23 12:44:57;;;;;;;20.38;12.15;;;19.60;96.30;;;;;;5016504;28;20202;-80
2022/04/23 12:47:33;;;;;;;19.10;12.70;;;19.70;95.60;;;;;;5021274;28;20218;-80
2022/04/23 12:50:07;;;;;;;22.38;13.10;;;19.60;95.20;;;;;;5004615;28;20582;-81
2022/04/23 12:52:37;;;;;;;17.50;13.10;;;19.50;95.20;;;;;;5001475;28;20638;-83
2022/04/23 12:55:22;;;;;;;18.40;12.68;;;19.30;95.40;;;;;;5012622;28;20230;-83
2022/04/23 12:57:52;;;;;;;21.42;13.10;;;19.20;95.70;;;;;;5004508;28;20612;-81
2022/04/23 13:00:21;;;;;;;20.25;11.90;;;19.20;96.30;;;;;;5004276;28;20283;-82
2022/04/23 13:02:53;;;;;;;15.57;11.52;;;19.10;95.80;;;;;;4998811;28;21293;-84
2022/04/23 13:05:22;;;;;;;16.25;11.55;;;19.00;95.70;;;;;;5016947;28;20234;-80
2022/04/23 13:10:39;;;;;;;16.52;11.52;;;18.80;96.80;;;;;;5001626;28;20202;-81
2022/04/23 13:13:09;;;;;;;16.67;11.25;;;18.60;96.40;;;;;;5020945;28;20206;-81
2022/04/23 13:15:37;;;;;;;17.75;11.93;;;18.70;96.80;;;;;;5017517;28;20237;-82
2022/04/23 13:18:05;;;;;;;14.90;11.15;;;19.00;96.50;;;;;;5007902;28;20563;-81
2022/04/23 13:20:33;;;;;;;14.93;11.13;;;19.20;95.70;;;;;;5018058;28;20202;-83